Time;durP1;ratioP1;P1;durP2;ratioP2;P2;SDS_P1;SDS_P2;PMS_P1;PMS_P2;Temp;Humidity;BMP_temperature;BMP_pressure;BME280_temperature;BME280_humidity;BME280_pressure;Samples;Min_cycle;Max_cycle;Signal;HPM_P1;HPM_P2
2022/04/24 00:01:39;;;;;;;13.98;5.68;;;;;;;;;;5093822;28;20099;-72
2022/04/24 00:04:06;;;;;;;4.60;2.42;;;;;;;;;;5093728;28;20392;-72
2022/04/24 00:06:34;;;;;;;2.78;0.80;;;;;;;;;;5093788;28;20074;-73
2022/04/24 00:09:02;;;;;;;4.45;1.23;;;;;;;;;;5092209;28;20153;-73
2022/04/24 00:11:30;;;;;;;4.45;1.40;;;;;;;;;;5092166;28;20024;-72
2022/04/24 00:13:57;;;;;;;1.88;1.00;;;;;;;;;;5093560;28;20376;-72
2022/04/24 00:16:24;;;;;;;2.92;1.20;;;;;;;;;;5093647;28;20023;-72
2022/04/24 00:18:52;;;;;;;4.82;1.10;;;;;;;;;;5093395;28;20024;-72
2022/04/24 00:21:19;;;;;;;2.70;1.20;;;;;;;;;;5093430;28;20024;-72
2022/04/24 00:23:46;;;;;;;5.38;1.48;;;;;;;;;;5093387;28;20120;-72
2022/04/24 00:26:13;;;;;;;5.47;2.53;;;;;;;;;;5092060;28;20557;-73
2022/04/24 00:28:40;;;;;;;7.85;2.28;;;;;;;;;;5091910;28;20081;-73
2022/04/24 00:31:07;;;;;;;3.47;1.10;;;;;;;;;;5093252;28;20046;-73
2022/04/24 00:33:34;;;;;;;3.05;0.88;;;;;;;;;;5093194;28;20087;-73
2022/04/24 00:36:02;;;;;;;3.70;1.00;;;;;;;;;;5091977;28;20118;-72
2022/04/24 00:38:29;;;;;;;2.63;0.80;;;;;;;;;;5091689;28;20027;-73
2022/04/24 00:40:56;;;;;;;3.35;0.90;;;;;;;;;;5091640;28;20072;-73
2022/04/24 00:43:24;;;;;;;2.35;0.60;;;;;;;;;;5092885;28;20516;-72
2022/04/24 00:45:56;;;;;;;1.60;0.65;;;;;;;;;;5093147;28;20027;-73
2022/04/24 00:48:23;;;;;;;1.77;0.52;;;;;;;;;;5091509;28;20044;-73
2022/04/24 00:50:50;;;;;;;2.33;0.68;;;;;;;;;;5093007;28;20012;-73
2022/04/24 00:53:17;;;;;;;2.10;0.80;;;;;;;;;;5091754;28;20477;-73
2022/04/24 00:55:44;;;;;;;1.75;0.40;;;;;;;;;;5093009;28;20026;-72
2022/04/24 00:58:12;;;;;;;2.55;0.63;;;;;;;;;;5092925;28;20103;-72
2022/04/24 01:00:39;;;;;;;1.50;0.50;;;;;;;;;;5091502;28;20024;-72
2022/04/24 01:03:06;;;;;;;1.80;0.70;;;;;;;;;;5092782;28;20024;-72
2022/04/24 01:05:34;;;;;;;2.30;0.60;;;;;;;;;;5092701;28;20105;-73
2022/04/24 01:08:01;;;;;;;2.33;0.60;;;;;;;;;;5092742;28;20024;-72
2022/04/24 01:10:29;;;;;;;2.35;0.63;;;;;;;;;;5092657;28;20035;-73
2022/04/24 01:12:56;;;;;;;3.70;0.60;;;;;;;;;;5092696;28;20106;-72
2022/04/24 01:15:23;;;;;;;3.20;0.88;;;;;;;;;;5091348;28;20027;-73
2022/04/24 01:17:50;;;;;;;1.58;0.47;;;;;;;;;;5091331;28;20507;-73
2022/04/24 01:20:21;;;;;;;2.55;0.57;;;;;;;;;;5091233;28;20020;-72
2022/04/24 01:22:48;;;;;;;0.80;0.50;;;;;;;;;;5092712;28;20069;-74
2022/04/24 01:25:15;;;;;;;0.98;0.32;;;;;;;;;;5091119;28;20040;-75
2022/04/24 01:27:42;;;;;;;2.03;0.40;;;;;;;;;;5091413;28;20036;-74
2022/04/24 01:30:10;;;;;;;1.50;0.50;;;;;;;;;;5092345;28;20029;-74
2022/04/24 01:32:39;;;;;;;2.00;0.50;;;;;;;;;;5092156;28;20028;-74
2022/04/24 01:35:11;;;;;;;3.25;0.50;;;;;;;;;;5092206;28;20024;-75
2022/04/24 01:37:38;;;;;;;2.60;0.70;;;;;;;;;;5092306;28;20057;-75
2022/04/24 01:40:06;;;;;;;2.88;0.47;;;;;;;;;;5092224;28;20020;-75
2022/04/24 01:42:33;;;;;;;2.33;0.30;;;;;;;;;;5092251;28;20024;-75
2022/04/24 01:45:00;;;;;;;2.58;0.22;;;;;;;;;;5092283;28;20481;-75
2022/04/24 01:47:27;;;;;;;1.92;0.20;;;;;;;;;;5090693;28;20020;-74
2022/04/24 01:49:54;;;;;;;0.73;0.20;;;;;;;;;;5090941;28;20036;-74
2022/04/24 01:52:21;;;;;;;1.58;0.28;;;;;;;;;;5094094;28;20028;-74
2022/04/24 01:54:48;;;;;;;1.92;0.30;;;;;;;;;;5094955;28;20170;-75
2022/04/24 01:57:16;;;;;;;2.85;0.40;;;;;;;;;;5096165;28;20013;-75
2022/04/24 01:59:43;;;;;;;1.33;0.22;;;;;;;;;;5096113;28;20023;-75
2022/04/24 02:02:10;;;;;;;1.55;0.22;;;;;;;;;;5096144;28;20103;-75
2022/04/24 02:04:37;;;;;;;2.35;0.40;;;;;;;;;;5096070;28;20457;-75
2022/04/24 02:07:06;;;;;;;1.33;0.38;;;;;;;;;;5096060;28;20052;-75
2022/04/24 02:09:34;;;;;;;3.67;0.40;;;;;;;;;;5095984;28;20107;-75
2022/04/24 02:12:01;;;;;;;1.00;0.20;;;;;;;;;;5095896;28;20028;-73
2022/04/24 02:14:28;;;;;;;2.85;0.47;;;;;;;;;;5095904;28;20438;-73
2022/04/24 02:16:55;;;;;;;2.30;0.40;;;;;;;;;;5095849;28;20020;-74
2022/04/24 02:19:22;;;;;;;1.45;0.30;;;;;;;;;;5095869;28;20020;-73
2022/04/24 02:21:49;;;;;;;0.98;0.25;;;;;;;;;;5094415;28;20021;-74
2022/04/24 02:24:17;;;;;;;1.30;0.30;;;;;;;;;;5094278;28;20046;-74
2022/04/24 02:26:44;;;;;;;2.78;0.30;;;;;;;;;;5095584;28;20028;-75
2022/04/24 02:29:11;;;;;;;3.22;0.38;;;;;;;;;;5095484;28;20031;-75
2022/04/24 02:31:38;;;;;;;2.38;0.32;;;;;;;;;;5094104;28;20031;-75
2022/04/24 02:34:05;;;;;;;2.33;0.43;;;;;;;;;;5095564;28;20024;-75
2022/04/24 02:36:32;;;;;;;1.17;0.30;;;;;;;;;;5095425;28;20053;-75
2022/04/24 02:39:00;;;;;;;0.73;0.30;;;;;;;;;;5094083;28;20480;-75
2022/04/24 02:41:27;;;;;;;1.55;0.13;;;;;;;;;;5094097;28;20043;-76
2022/04/24 02:43:54;;;;;;;1.33;0.40;;;;;;;;;;5095415;28;20392;-76
2022/04/24 02:46:21;;;;;;;1.52;0.22;;;;;;;;;;5095134;28;20523;-76
2022/04/24 02:48:49;;;;;;;0.85;0.28;;;;;;;;;;5095164;28;20048;-76
2022/04/24 02:51:16;;;;;;;0.55;0.30;;;;;;;;;;5095069;28;20112;-76
2022/04/24 02:53:43;;;;;;;2.00;0.40;;;;;;;;;;5095167;28;20016;-75
2022/04/24 02:56:10;;;;;;;0.90;0.30;;;;;;;;;;5093883;28;20488;-75
2022/04/24 02:58:40;;;;;;;1.27;0.30;;;;;;;;;;5093811;28;20027;-75
2022/04/24 03:01:08;;;;;;;1.55;0.28;;;;;;;;;;5095223;28;20027;-75
2022/04/24 03:03:35;;;;;;;2.05;0.45;;;;;;;;;;5092277;28;20035;-75
2022/04/24 03:06:02;;;;;;;0.40;0.20;;;;;;;;;;5093720;28;20048;-75
2022/04/24 03:08:30;;;;;;;2.22;0.30;;;;;;;;;;5094915;28;20042;-75
2022/04/24 03:10:57;;;;;;;1.95;0.30;;;;;;;;;;5094861;28;20145;-74
2022/04/24 03:13:25;;;;;;;1.63;0.20;;;;;;;;;;5094761;28;20016;-74
2022/04/24 03:15:52;;;;;;;1.15;0.40;;;;;;;;;;5094890;28;20022;-74
2022/04/24 03:18:19;;;;;;;0.52;0.20;;;;;;;;;;5094743;28;20388;-75
2022/04/24 03:20:46;;;;;;;2.10;0.30;;;;;;;;;;5094664;28;20027;-74
2022/04/24 03:23:13;;;;;;;0.47;0.20;;;;;;;;;;5094656;28;20421;-75
2022/04/24 03:25:40;;;;;;;1.33;0.40;;;;;;;;;;5094453;28;20021;-74
2022/04/24 03:28:09;;;;;;;0.80;0.45;;;;;;;;;;5093048;28;20078;-75
2022/04/24 03:30:36;;;;;;;1.33;0.20;;;;;;;;;;5094402;28;20100;-75
2022/04/24 03:33:03;;;;;;;0.80;0.20;;;;;;;;;;5094157;28;20024;-74
2022/04/24 03:35:30;;;;;;;1.63;0.43;;;;;;;;;;5092869;28;20308;-75
2022/04/24 03:38:01;;;;;;;1.02;0.43;;;;;;;;;;5094241;28;20074;-75
2022/04/24 03:40:28;;;;;;;2.45;0.32;;;;;;;;;;5094373;28;20436;-75
2022/04/24 03:42:55;;;;;;;2.03;0.30;;;;;;;;;;5092772;28;20028;-75
2022/04/24 03:45:22;;;;;;;1.95;0.38;;;;;;;;;;5094138;28;20109;-75
2022/04/24 03:47:51;;;;;;;1.98;0.30;;;;;;;;;;5092523;28;20055;-75
2022/04/24 03:50:19;;;;;;;1.95;0.30;;;;;;;;;;5094162;28;20050;-75
2022/04/24 03:52:47;;;;;;;3.15;0.30;;;;;;;;;;5092651;28;20024;-75
2022/04/24 03:55:14;;;;;;;2.15;0.45;;;;;;;;;;5094048;28;20016;-75
2022/04/24 03:57:41;;;;;;;0.50;0.20;;;;;;;;;;5092684;28;20028;-75
2022/04/24 04:00:09;;;;;;;0.98;0.10;;;;;;;;;;5093827;28;20387;-75
2022/04/24 04:02:43;;;;;;;0.85;0.20;;;;;;;;;;5092626;28;20455;-75
2022/04/24 04:05:10;;;;;;;1.83;0.22;;;;;;;;;;5093801;28;20054;-75
2022/04/24 04:07:37;;;;;;;1.73;0.40;;;;;;;;;;5093870;28;20029;-76
2022/04/24 04:10:05;;;;;;;1.20;0.30;;;;;;;;;;5093668;28;20063;-75
2022/04/24 04:12:32;;;;;;;0.47;0.20;;;;;;;;;;5093544;28;20488;-75
2022/04/24 04:15:01;;;;;;;2.08;0.20;;;;;;;;;;5093160;28;20024;-75
2022/04/24 04:17:28;;;;;;;1.75;0.28;;;;;;;;;;5092193;28;20024;-76
2022/04/24 04:19:55;;;;;;;0.82;0.20;;;;;;;;;;5093476;28;20155;-76
2022/04/24 04:22:22;;;;;;;1.40;0.32;;;;;;;;;;5093508;28;20020;-76
2022/04/24 04:24:50;;;;;;;2.45;0.20;;;;;;;;;;5092129;28;20024;-75
2022/04/24 04:27:17;;;;;;;1.27;0.22;;;;;;;;;;5093494;28;20388;-75
2022/04/24 04:29:44;;;;;;;1.75;0.20;;;;;;;;;;5093285;28;20052;-75
2022/04/24 04:32:11;;;;;;;2.70;0.20;;;;;;;;;;5092041;28;20506;-75
2022/04/24 04:34:38;;;;;;;1.55;0.30;;;;;;;;;;5093340;28;20094;-75
2022/04/24 04:37:05;;;;;;;0.50;0.20;;;;;;;;;;5093346;28;20091;-75
2022/04/24 04:39:33;;;;;;;1.40;0.50;;;;;;;;;;5091854;28;20059;-75
2022/04/24 04:42:00;;;;;;;2.53;0.20;;;;;;;;;;5091907;28;20027;-75
2022/04/24 04:44:27;;;;;;;2.28;0.30;;;;;;;;;;5091706;28;20536;-75
2022/04/24 04:46:54;;;;;;;2.22;0.60;;;;;;;;;;5091727;28;20496;-75
2022/04/24 04:49:21;;;;;;;1.35;0.20;;;;;;;;;;5092828;28;20048;-75
2022/04/24 04:51:48;;;;;;;2.05;0.40;;;;;;;;;;5092943;28;20028;-75
2022/04/24 04:54:16;;;;;;;2.55;0.20;;;;;;;;;;5091243;28;20524;-75
2022/04/24 04:56:43;;;;;;;1.25;0.15;;;;;;;;;;5092825;28;20031;-75
2022/04/24 04:59:11;;;;;;;1.75;0.20;;;;;;;;;;5091488;28;20020;-75
2022/04/24 05:01:38;;;;;;;1.02;0.10;;;;;;;;;;5091373;28;20024;-75
2022/04/24 05:04:05;;;;;;;0.80;0.10;;;;;;;;;;5091413;28;20031;-75
2022/04/24 05:06:32;;;;;;;1.00;0.30;;;;;;;;;;5092636;28;20030;-75
2022/04/24 05:08:59;;;;;;;1.02;0.10;;;;;;;;;;5091421;28;20052;-76
2022/04/24 05:11:26;;;;;;;0.52;0.10;;;;;;;;;;5091217;28;20039;-75
2022/04/24 05:13:53;;;;;;;0.65;0.03;;;;;;;;;;5092760;28;20415;-75
2022/04/24 05:16:21;;;;;;;1.90;0.10;;;;;;;;;;5092525;28;20108;-76
2022/04/24 05:18:48;;;;;;;1.15;0.20;;;;;;;;;;5092745;28;20413;-75
2022/04/24 05:21:17;;;;;;;0.50;0.20;;;;;;;;;;5092635;28;20044;-75
2022/04/24 05:23:46;;;;;;;1.20;0.10;;;;;;;;;;5092447;28;20044;-76
2022/04/24 05:26:13;;;;;;;1.30;0.20;;;;;;;;;;5091655;28;20012;-76
2022/04/24 05:28:41;;;;;;;0.17;0.10;;;;;;;;;;5092556;28;20124;-75
2022/04/24 05:31:08;;;;;;;0.65;0.10;;;;;;;;;;5092443;28;20032;-74
2022/04/24 05:33:35;;;;;;;0.47;0.03;;;;;;;;;;5091042;28;20472;-77
2022/04/24 05:36:02;;;;;;;3.08;0.20;;;;;;;;;;5092381;28;20045;-77
2022/04/24 05:38:29;;;;;;;0.77;0.13;;;;;;;;;;5091083;28;20093;-75
2022/04/24 05:40:56;;;;;;;1.17;0.10;;;;;;;;;;5092408;28;20384;-76
2022/04/24 05:43:23;;;;;;;1.05;0.10;;;;;;;;;;5091042;28;20024;-76
2022/04/24 05:45:50;;;;;;;0.57;0.20;;;;;;;;;;5092258;28;20431;-76
2022/04/24 05:48:18;;;;;;;0.55;0.10;;;;;;;;;;5090773;28;20052;-77
2022/04/24 05:50:46;;;;;;;1.73;0.15;;;;;;;;;;5092296;28;20412;-75
2022/04/24 05:53:13;;;;;;;1.05;0.40;;;;;;;;;;5092168;28;20024;-75
2022/04/24 05:55:40;;;;;;;2.35;0.30;;;;;;;;;;5092320;28;20361;-75
2022/04/24 05:58:07;;;;;;;1.10;0.47;;;;;;;;;;5092139;28;20099;-75
2022/04/24 06:00:36;;;;;;;1.85;0.20;;;;;;;;;;5090820;28;20024;-75
2022/04/24 06:03:04;;;;;;;1.05;0.20;;;;;;;;;;5092074;28;20028;-75
2022/04/24 06:05:31;;;;;;;1.13;0.20;;;;;;;;;;5092385;28;20384;-75
2022/04/24 06:07:58;;;;;;;2.17;0.20;;;;;;;;;;5092031;28;20055;-75
2022/04/24 06:10:25;;;;;;;0.95;0.20;;;;;;;;;;5090755;28;20039;-76
2022/04/24 06:12:53;;;;;;;1.55;0.20;;;;;;;;;;5092010;28;20507;-75
2022/04/24 06:15:24;;;;;;;1.13;0.10;;;;;;;;;;5092093;28;20031;-75
2022/04/24 06:17:52;;;;;;;0.63;0.10;;;;;;;;;;5090718;28;20017;-76
2022/04/24 06:20:21;;;;;;;0.43;0.10;;;;;;;;;;5092262;28;20048;-76
2022/04/24 06:22:49;;;;;;;0.85;0.20;;;;;;;;;;5090554;28;20456;-75
2022/04/24 06:25:20;;;;;;;0.95;0.30;;;;;;;;;;5090642;28;20024;-75
2022/04/24 06:27:50;;;;;;;2.15;0.43;;;;;;;;;;5090516;28;20024;-75
2022/04/24 06:30:17;;;;;;;0.20;0.10;;;;;;;;;;5090635;28;20027;-75
2022/04/24 06:32:45;;;;;;;0.57;0.20;;;;;;;;;;5090436;28;20031;-75
2022/04/24 06:35:14;;;;;;;1.30;0.32;;;;;;;;;;5090415;28;20408;-75
2022/04/24 06:37:42;;;;;;;0.00;0.00;;;;;;;;;;5092609;28;20070;-76
2022/04/24 06:40:10;;;;;;;0.55;0.20;;;;;;;;;;5095468;28;20028;-75
2022/04/24 06:42:48;;;;;;;1.48;0.15;;;;;;;;;;5095337;28;20125;-75
2022/04/24 06:45:15;;;;;;;0.50;0.25;;;;;;;;;;5095344;28;20048;-76
2022/04/24 06:47:43;;;;;;;0.70;0.30;;;;;;;;;;5093694;28;20504;-77
2022/04/24 06:50:10;;;;;;;2.53;0.40;;;;;;;;;;5093716;28;20031;-77
2022/04/24 06:52:38;;;;;;;0.60;0.22;;;;;;;;;;5095089;28;20024;-78
2022/04/24 06:55:08;;;;;;;2.10;0.40;;;;;;;;;;5093778;28;20054;-78
2022/04/24 06:57:36;;;;;;;2.15;0.22;;;;;;;;;;5093814;28;20016;-77
2022/04/24 07:00:04;;;;;;;1.23;0.40;;;;;;;;;;5095482;28;20095;-78
2022/04/24 07:02:31;;;;;;;3.15;0.50;;;;;;;;;;5093804;28;20393;-77
2022/04/24 07:04:58;;;;;;;2.17;0.45;;;;;;;;;;5093697;28;20023;-77
2022/04/24 07:07:25;;;;;;;1.88;0.50;;;;;;;;;;5093707;28;20020;-78
2022/04/24 07:09:53;;;;;;;2.80;0.65;;;;;;;;;;5094885;28;20088;-78
2022/04/24 07:12:20;;;;;;;2.67;0.40;;;;;;;;;;5093507;28;20035;-77
2022/04/24 07:14:47;;;;;;;1.98;0.40;;;;;;;;;;5094804;28;20031;-77
2022/04/24 07:17:14;;;;;;;2.92;0.50;;;;;;;;;;5093394;28;20447;-76
2022/04/24 07:19:41;;;;;;;3.47;0.75;;;;;;;;;;5094651;28;20074;-76
2022/04/24 07:22:08;;;;;;;2.67;0.55;;;;;;;;;;5094745;28;20024;-77
2022/04/24 07:24:35;;;;;;;2.83;0.50;;;;;;;;;;5093299;28;20031;-76
2022/04/24 07:27:03;;;;;;;2.20;0.50;;;;;;;;;;5093235;28;20556;-76
2022/04/24 07:29:30;;;;;;;1.88;0.60;;;;;;;;;;5093155;28;20020;-77
2022/04/24 07:31:57;;;;;;;2.00;0.45;;;;;;;;;;5093150;28;20107;-76
2022/04/24 07:34:24;;;;;;;2.22;0.60;;;;;;;;;;5093376;28;20031;-77
2022/04/24 07:36:51;;;;;;;1.48;0.60;;;;;;;;;;5094344;28;20051;-75
2022/04/24 07:39:19;;;;;;;1.88;0.55;;;;;;;;;;5094359;28;20020;-78
2022/04/24 07:41:46;;;;;;;2.70;0.60;;;;;;;;;;5094235;28;20027;-75
2022/04/24 07:44:13;;;;;;;5.68;0.90;;;;;;;;;;5094120;28;20031;-75
2022/04/24 07:46:40;;;;;;;2.15;0.65;;;;;;;;;;5094275;28;20024;-76
2022/04/24 07:49:07;;;;;;;1.05;0.57;;;;;;;;;;5093312;28;20044;-76
2022/04/24 07:51:34;;;;;;;2.90;0.63;;;;;;;;;;5093915;28;20476;-74
2022/04/24 07:54:01;;;;;;;2.88;0.70;;;;;;;;;;5094068;28;20027;-77
2022/04/24 07:56:29;;;;;;;4.57;1.20;;;;;;;;;;5094031;28;20019;-77
2022/04/24 07:58:56;;;;;;;2.72;0.80;;;;;;;;;;5094095;28;20020;-77
2022/04/24 08:01:23;;;;;;;2.58;1.15;;;;;;;;;;5092750;28;20028;-76
2022/04/24 08:03:50;;;;;;;3.42;0.80;;;;;;;;;;5093804;28;20031;-76
2022/04/24 08:06:17;;;;;;;3.63;0.73;;;;;;;;;;5092492;28;20503;-76
2022/04/24 08:08:44;;;;;;;1.33;0.63;;;;;;;;;;5092496;28;20131;-76
2022/04/24 08:11:12;;;;;;;2.78;0.73;;;;;;;;;;5093697;28;20384;-76
2022/04/24 08:13:39;;;;;;;4.13;0.68;;;;;;;;;;5093631;28;20034;-76
2022/04/24 08:16:06;;;;;;;1.65;0.47;;;;;;;;;;5093706;28;20366;-76
2022/04/24 08:18:35;;;;;;;2.63;0.73;;;;;;;;;;5092374;28;20030;-77
2022/04/24 08:21:02;;;;;;;1.95;0.40;;;;;;;;;;5093632;28;20127;-77
2022/04/24 08:23:29;;;;;;;2.08;0.43;;;;;;;;;;5093535;28;20020;-77
2022/04/24 08:25:56;;;;;;;2.17;0.60;;;;;;;;;;5093564;28;20105;-76
2022/04/24 08:28:25;;;;;;;2.63;0.50;;;;;;;;;;5093454;28;20480;-76
2022/04/24 08:30:53;;;;;;;2.03;0.63;;;;;;;;;;5093371;28;20418;-79
2022/04/24 08:33:21;;;;;;;2.75;0.75;;;;;;;;;;5091929;28;20051;-78
2022/04/24 08:35:48;;;;;;;4.00;0.77;;;;;;;;;;5092070;28;20024;-78
2022/04/24 08:38:16;;;;;;;1.50;0.63;;;;;;;;;;5091993;28;20410;-78
2022/04/24 08:40:43;;;;;;;3.15;0.65;;;;;;;;;;5093221;28;20094;-77
2022/04/24 08:43:10;;;;;;;1.58;0.50;;;;;;;;;;5093226;28;20100;-78
2022/04/24 08:45:43;;;;;;;2.03;0.47;;;;;;;;;;5091798;28;20107;-78
2022/04/24 08:48:11;;;;;;;2.33;0.40;;;;;;;;;;5075639;28;20071;-76
2022/04/24 08:50:38;;;;;;;2.05;0.60;;;;;;;;;;5092753;28;20028;-78
2022/04/24 08:53:07;;;;;;;1.80;0.77;;;;;;;;;;5092736;28;20112;-75
2022/04/24 08:55:34;;;;;;;1.70;0.70;;;;;;;;;;5092682;28;20031;-75
2022/04/24 08:58:01;;;;;;;3.40;1.27;;;;;;;;;;5092715;28;20085;-76
2022/04/24 09:00:29;;;;;;;2.60;1.05;;;;;;;;;;5092550;28;20016;-76
2022/04/24 09:02:59;;;;;;;1.83;0.90;;;;;;;;;;5092671;28;20028;-78
2022/04/24 09:05:28;;;;;;;2.55;1.20;;;;;;;;;;5092935;28;20081;-78
2022/04/24 09:08:05;;;;;;;4.15;1.38;;;;;;;;;;5092594;28;20028;-81
2022/04/24 09:10:32;;;;;;;2.72;1.00;;;;;;;;;;5092643;28;20506;-79
2022/04/24 09:13:03;;;;;;;3.20;1.20;;;;;;;;;;5092532;28;20058;-78
2022/04/24 09:15:33;;;;;;;3.42;0.90;;;;;;;;;;5092648;28;20016;-78
2022/04/24 09:18:02;;;;;;;2.00;1.02;;;;;;;;;;5091202;28;20016;-79
2022/04/24 09:20:34;;;;;;;6.78;3.47;;;;;;;;;;5091021;28;20512;-77
2022/04/24 09:23:04;;;;;;;6.43;3.20;;;;;;;;;;5091098;28;20035;-77
2022/04/24 09:25:41;;;;;;;3.90;2.25;;;;;;;;;;5092456;28;20107;-77
2022/04/24 09:28:08;;;;;;;4.85;2.00;;;;;;;;;;5091190;28;20081;-77
2022/04/24 09:30:36;;;;;;;3.45;1.90;;;;;;;;;;5091083;28;20073;-75
2022/04/24 09:33:03;;;;;;;2.53;1.52;;;;;;;;;;5090918;28;20476;-76
2022/04/24 09:35:32;;;;;;;3.95;1.50;;;;;;;;;;5092276;28;20021;-71
2022/04/24 09:38:08;;;;;;;8.63;1.20;;;;;;;;;;5092342;28;20020;-73
2022/04/24 09:40:46;;;;;;;3.05;1.10;;;;;;;;;;5092366;28;20013;-73
2022/04/24 09:43:15;;;;;;;2.70;1.45;;;;;;;;;;5090944;28;20369;-72
2022/04/24 09:45:42;;;;;;;4.15;2.13;;;;;;;;;;5092148;28;20079;-72
2022/04/24 09:48:13;;;;;;;2.85;1.13;;;;;;;;;;5090618;28;20052;-72
2022/04/24 09:50:41;;;;;;;1.67;0.77;;;;;;;;;;5090898;28;20538;-72
2022/04/24 09:53:09;;;;;;;2.05;0.70;;;;;;;;;;5090776;28;20028;-72
2022/04/24 09:55:37;;;;;;;1.80;0.88;;;;;;;;;;5090861;28;20021;-73
2022/04/24 09:58:04;;;;;;;2.50;1.25;;;;;;;;;;5092204;28;20016;-72
2022/04/24 10:00:34;;;;;;;3.38;1.00;;;;;;;;;;5090669;28;20031;-72
2022/04/24 10:03:02;;;;;;;1.47;0.70;;;;;;;;;;5090806;28;20036;-72
2022/04/24 10:05:32;;;;;;;4.25;1.02;;;;;;;;;;5090634;28;20798;-73
2022/04/24 10:08:04;;;;;;;2.15;0.70;;;;;;;;;;5092140;28;20028;-72
2022/04/24 10:10:31;;;;;;;1.45;0.70;;;;;;;;;;5090709;28;20528;-73
2022/04/24 10:13:01;;;;;;;3.22;1.13;;;;;;;;;;5093275;28;20109;-71
2022/04/24 10:15:28;;;;;;;4.70;1.48;;;;;;;;;;5095994;28;20016;-70
2022/04/24 10:18:02;;;;;;;2.75;1.13;;;;;;;;;;5095879;28;20048;-72
2022/04/24 10:20:47;;;;;;;2.97;0.90;;;;;;;;;;5095817;28;20051;-72
2022/04/24 10:23:14;;;;;;;1.23;0.70;;;;;;;;;;5095769;28;20452;-72
2022/04/24 10:25:43;;;;;;;1.90;0.70;;;;;;;;;;5094394;28;20035;-73
2022/04/24 10:28:20;;;;;;;1.77;0.95;;;;;;;;;;5095824;28;20028;-73
2022/04/24 10:31:07;;;;;;;2.08;0.80;;;;;;;;;;5094326;28;20419;-72
2022/04/24 10:33:35;;;;;;;1.15;0.70;;;;;;;;;;5094111;28;20081;-73
2022/04/24 10:36:15;;;;;;;1.70;0.90;;;;;;;;;;5094189;28;20030;-72
2022/04/24 10:38:48;;;;;;;4.13;1.73;;;;;;;;;;5094247;28;20508;-72
2022/04/24 10:41:19;;;;;;;6.15;2.10;;;;;;;;;;5094041;28;20024;-72
2022/04/24 10:43:51;;;;;;;3.65;1.95;;;;;;;;;;5094120;28;20445;-73
2022/04/24 10:46:28;;;;;;;3.35;1.80;;;;;;;;;;5094430;28;20032;-73
2022/04/24 10:49:06;;;;;;;2.40;1.80;;;;;;;;;;5095057;28;20044;-73
2022/04/24 10:51:34;;;;;;;2.78;1.77;;;;;;;;;;5093879;28;20028;-73
2022/04/24 10:54:02;;;;;;;3.22;2.22;;;;;;;;;;5095225;28;20437;-73
2022/04/24 10:56:31;;;;;;;2.75;1.67;;;;;;;;;;5095260;28;20027;-73
2022/04/24 10:59:11;;;;;;;2.83;1.58;;;;;;;;;;5095128;28;20099;-73
2022/04/24 11:01:39;;;;;;;3.43;1.70;;;;;;;;;;5093795;28;20503;-73
2022/04/24 11:04:06;;;;;;;3.33;2.10;;;;;;;;;;5093643;28;20268;-72
2022/04/24 11:06:34;;;;;;;2.63;1.48;;;;;;;;;;5093660;28;20028;-74
2022/04/24 11:09:09;;;;;;;3.30;1.75;;;;;;;;;;5094911;28;20467;-72
2022/04/24 11:11:45;;;;;;;2.25;1.58;;;;;;;;;;5094830;28;20073;-72
2022/04/24 11:14:13;;;;;;;3.00;1.77;;;;;;;;;;5093579;28;20020;-73
2022/04/24 11:16:48;;;;;;;3.78;1.40;;;;;;;;;;5094901;28;20020;-73
2022/04/24 11:19:20;;;;;;;3.80;1.67;;;;;;;;;;5094819;28;20031;-73
2022/04/24 11:21:47;;;;;;;2.63;1.40;;;;;;;;;;5094740;28;20024;-73
2022/04/24 11:24:18;;;;;;;3.45;1.30;;;;;;;;;;5092189;28;20039;-73
2022/04/24 11:26:44;;;;;;;;;;;;;;;;;;5095117;28;20016;-74
2022/04/24 11:29:12;;;;;;;3.30;1.40;;;;;;;;;;5093177;28;19911;-73
2022/04/24 11:31:47;;;;;;;2.30;1.55;;;;;;;;;;5094352;28;20066;-74
2022/04/24 11:34:18;;;;;;;3.38;1.48;;;;;;;;;;5094448;28;20472;-73
2022/04/24 11:36:45;;;;;;;3.20;1.17;;;;;;;;;;5094444;28;20069;-72
2022/04/24 11:39:12;;;;;;;2.25;1.20;;;;;;;;;;5094345;28;20072;-73
2022/04/24 11:41:40;;;;;;;2.63;0.93;;;;;;;;;;5094354;28;20039;-73
2022/04/24 11:50:13;;;;;;;2.67;1.30;;;;;;;;;;5094288;28;20047;-73
2022/04/24 11:52:39;;;;;;;2.92;0.80;;;;;;;;;;5094174;28;20054;-73
2022/04/24 11:55:06;;;;;;;1.98;0.80;;;;;;;;;;5092655;28;20067;-73
2022/04/24 11:57:34;;;;;;;2.33;0.70;;;;;;;;;;5093992;28;20024;-73
2022/04/24 12:00:03;;;;;;;2.35;0.93;;;;;;;;;;5092707;28;20039;-73
2022/04/24 12:02:30;;;;;;;2.38;1.00;;;;;;;;;;5092700;28;20484;-72
2022/04/24 12:04:57;;;;;;;2.50;0.75;;;;;;;;;;5093904;28;20023;-73
2022/04/24 12:07:32;;;;;;;4.07;1.10;;;;;;;;;;5092505;28;20025;-74
2022/04/24 12:10:01;;;;;;;2.03;0.80;;;;;;;;;;5092493;28;20560;-73
2022/04/24 12:12:28;;;;;;;2.58;0.68;;;;;;;;;;5092361;28;20407;-73
2022/04/24 12:14:56;;;;;;;2.05;0.60;;;;;;;;;;5093640;28;20426;-73
2022/04/24 12:17:24;;;;;;;1.30;0.70;;;;;;;;;;5093594;28;20017;-73
2022/04/24 12:19:55;;;;;;;0.73;0.40;;;;;;;;;;5093505;28;20024;-73
2022/04/24 12:22:37;;;;;;;1.40;0.50;;;;;;;;;;5092224;28;20074;-73
2022/04/24 12:25:22;;;;;;;1.30;0.55;;;;;;;;;;5092190;28;20040;-73
2022/04/24 12:27:56;;;;;;;1.13;0.50;;;;;;;;;;5093545;28;20039;-73
2022/04/24 12:30:24;;;;;;;2.90;0.70;;;;;;;;;;5093448;28;20298;-73
2022/04/24 12:32:52;;;;;;;1.13;0.40;;;;;;;;;;5093295;28;20028;-73
2022/04/24 12:35:29;;;;;;;2.83;0.85;;;;;;;;;;5091785;28;20024;-72
2022/04/24 12:37:56;;;;;;;2.97;0.70;;;;;;;;;;5091909;28;20114;-73
2022/04/24 12:40:23;;;;;;;1.50;0.50;;;;;;;;;;5093280;28;20100;-73
2022/04/24 12:42:57;;;;;;;1.08;0.55;;;;;;;;;;5091884;28;20488;-73
2022/04/24 12:45:25;;;;;;;2.25;0.70;;;;;;;;;;5091875;28;20396;-73
2022/04/24 12:47:53;;;;;;;2.05;0.73;;;;;;;;;;5092957;28;20031;-74
2022/04/24 12:50:20;;;;;;;2.00;0.60;;;;;;;;;;5093178;28;20532;-73
2022/04/24 12:52:47;;;;;;;3.40;1.38;;;;;;;;;;5093104;28;20020;-74
2022/04/24 12:55:15;;;;;;;1.27;0.57;;;;;;;;;;5093048;28;20362;-74
2022/04/24 12:57:42;;;;;;;2.28;0.63;;;;;;;;;;5092917;28;20020;-73
2022/04/24 13:00:09;;;;;;;2.47;0.95;;;;;;;;;;5092936;28;20016;-73
2022/04/24 13:02:36;;;;;;;1.50;0.80;;;;;;;;;;5091634;28;20557;-73
2022/04/24 13:05:03;;;;;;;1.52;0.77;;;;;;;;;;5092768;28;20026;-72
2022/04/24 13:07:30;;;;;;;2.20;0.80;;;;;;;;;;5091458;28;20050;-73
2022/04/24 13:09:58;;;;;;;2.38;0.70;;;;;;;;;;5091447;28;20488;-72
2022/04/24 13:12:26;;;;;;;1.90;0.80;;;;;;;;;;5092638;28;20021;-72
2022/04/24 13:14:53;;;;;;;2.47;1.00;;;;;;;;;;5091400;28;20024;-72
2022/04/24 13:20:06;;;;;;;1.85;1.05;;;;;;;;;;5092987;28;20070;-73
2022/04/24 13:22:33;;;;;;;2.90;1.35;;;;;;;;;;5092612;28;20375;-73
2022/04/24 13:25:00;;;;;;;3.25;1.17;;;;;;;;;;5092619;28;20024;-72
2022/04/24 13:27:27;;;;;;;2.70;1.15;;;;;;;;;;5091241;28;20024;-73
2022/04/24 13:29:54;;;;;;;2.20;1.10;;;;;;;;;;5091274;28;20024;-73
2022/04/24 13:32:25;;;;;;;1.65;1.00;;;;;;;;;;5091180;28;20046;-73
2022/04/24 13:34:52;;;;;;;3.15;1.00;;;;;;;;;;5092517;28;20021;-72
2022/04/24 13:40:05;;;;;;;2.30;1.10;;;;;;;;;;5092733;28;20438;-73
2022/04/24 13:42:32;;;;;;;2.40;1.00;;;;;;;;;;5092457;28;20032;-73
2022/04/24 13:45:00;;;;;;;1.52;1.02;;;;;;;;;;5091097;28;20028;-72
2022/04/24 13:47:27;;;;;;;2.22;0.98;;;;;;;;;;5092684;28;20484;-73
2022/04/24 13:49:54;;;;;;;1.63;1.02;;;;;;;;;;5096579;28;20100;-73
2022/04/24 13:52:21;;;;;;;1.35;0.80;;;;;;;;;;5096442;28;20024;-73
2022/04/24 13:54:48;;;;;;;1.83;1.00;;;;;;;;;;5096539;28;20074;-74
2022/04/24 13:57:15;;;;;;;2.45;1.17;;;;;;;;;;5094965;28;20048;-73
2022/04/24 13:59:43;;;;;;;1.92;0.90;;;;;;;;;;5096358;28;20023;-73
2022/04/24 14:02:11;;;;;;;2.95;1.10;;;;;;;;;;5095005;28;20078;-74
2022/04/24 14:04:38;;;;;;;1.88;0.93;;;;;;;;;;5096214;28;20023;-73
2022/04/24 14:07:06;;;;;;;2.30;1.13;;;;;;;;;;5094879;28;20031;-73
2022/04/24 14:09:34;;;;;;;2.60;1.10;;;;;;;;;;5094882;28;20054;-72
2022/04/24 14:12:02;;;;;;;1.95;1.35;;;;;;;;;;5094850;28;20074;-73
2022/04/24 14:14:31;;;;;;;2.35;1.17;;;;;;;;;;5096222;28;20024;-73
2022/04/24 14:16:59;;;;;;;2.30;0.90;;;;;;;;;;5094815;28;20065;-73
2022/04/24 14:19:26;;;;;;;2.30;0.80;;;;;;;;;;5095941;28;20017;-73
2022/04/24 14:21:55;;;;;;;1.83;1.00;;;;;;;;;;5095950;28;20047;-73
2022/04/24 14:24:25;;;;;;;2.80;0.98;;;;;;;;;;5094465;28;20020;-73
2022/04/24 14:26:53;;;;;;;3.05;1.42;;;;;;;;;;5094510;28;20024;-73
2022/04/24 14:29:21;;;;;;;1.70;1.15;;;;;;;;;;5096116;28;20051;-73
2022/04/24 14:31:48;;;;;;;1.75;1.02;;;;;;;;;;5095694;28;20056;-72
2022/04/24 14:34:16;;;;;;;1.35;1.02;;;;;;;;;;5094369;28;20032;-73
2022/04/24 14:36:43;;;;;;;3.60;1.10;;;;;;;;;;5095703;28;20059;-73
2022/04/24 14:39:10;;;;;;;2.78;1.10;;;;;;;;;;5094217;28;20016;-73
2022/04/24 14:41:38;;;;;;;3.70;1.00;;;;;;;;;;5095539;28;20077;-74
2022/04/24 14:44:05;;;;;;;1.88;1.00;;;;;;;;;;5095499;28;20468;-73
2022/04/24 14:57:35;;;;;;;2.70;0.98;;;;;;;;;;5095208;28;20392;-73
2022/04/24 15:00:03;;;;;;;3.25;1.20;;;;;;;;;;5094973;28;20023;-73
2022/04/24 15:02:30;;;;;;;1.42;1.10;;;;;;;;;;5093825;28;20040;-75
2022/04/24 15:04:57;;;;;;;2.17;1.08;;;;;;;;;;5095021;28;20079;-74
2022/04/24 15:07:24;;;;;;;3.05;0.93;;;;;;;;;;5095035;28;20020;-74
2022/04/24 15:09:51;;;;;;;1.90;0.98;;;;;;;;;;5093595;28;20089;-74
2022/04/24 15:12:18;;;;;;;1.77;0.90;;;;;;;;;;5093655;28;20042;-74